MST,Max TemperatureF,Mean TemperatureF,Min TemperatureF,Max Dew PointF,MeanDew PointF,Min DewpointF,Max Humidity, Mean Humidity, Min Humidity, Max Sea Level PressureIn, Mean Sea Level PressureIn, Min Sea Level PressureIn, Max VisibilityMiles, Mean VisibilityMiles, Min VisibilityMiles, Max Wind SpeedMPH, Mean Wind SpeedMPH, Max Gust SpeedMPH,PrecipitationIn, CloudCover, Events, WindDirDegrees
2013-12-1,42,36,30,33,29,24,85,70,54,30.16,29.91,29.72,10,10,9,16,5,23,0.02,7,Rain,218
2013-12-2,41,26,10,33,24,1,92,77,62,29.86,29.59,29.49,10,6,0,26,9,33,0.08,7,Fog-Rain-Snow,306
2013-12-3,10,2,-6,-1,-9,-13,69,63,56,30.34,30.16,29.91,10,10,4,21,11,28,T,7,Snow,352
2013-12-4,2,-8,-18,-8,-13,-22,83,71,59,30.45,30.29,30.00,10,9,3,10,3,14,0.00,5,,150
2013-12-5,2,-10,-23,-9,-17,-29,83,71,59,30.47,30.37,30.00,10,9,2,7,2,7,T,2,Snow,154
2013-12-6,-6,-11,-17,-16,-19,-21,81,72,63,30.50,30.44,30.07,10,9,6,21,7,23,T,7,,166
2013-12-7,-4,-14,-24,-16,-22,-28,80,68,56,30.40,30.33,30.22,10,10,8,13,3,15,0.00,2,,102
2013-12-8,-1,-13,-26,-8,-17,-30,92,81,69,30.55,30.28,29.95,10,6,1,9,3,10,T,5,Snow,327
2013-12-9,22,0,-22,9,-4,-27,81,69,57,30.53,30.46,30.24,10,10,6,15,4,23,T,7,,320
2013-12-10,24,18,11,16,12,8,84,71,57,30.43,30.20,29.97,10,7,1,16,5,25,0.03,8,Snow,322
2013-12-11,26,11,-5,11,3,-8,92,76,59,30.58,30.51,30.42,10,10,10,12,3,13,0.00,2,,147
2013-12-12,30,15,0,16,8,-2,88,73,58,30.50,30.35,30.15,10,10,9,12,2,14,0.00,1,,82
2013-12-13,36,28,19,23,19,13,81,69,56,30.37,30.23,30.13,10,10,10,17,5,25,0.00,7,,344
2013-12-14,39,28,17,26,21,16,88,70,52,30.44,30.37,30.23,10,10,8,14,4,21,0.00,5,,324
2013-12-15,46,31,16,24,18,11,74,56,38,30.32,30.25,30.14,10,10,10,18,5,23,0.00,0,,254
2013-12-16,45,31,17,18,16,13,81,56,31,30.40,30.28,30.20,10,10,9,15,6,22,0.00,1,,251
2013-12-17,53,35,16,20,15,10,80,52,24,30.40,30.19,29.92,10,10,10,22,6,31,0.00,0,,252
2013-12-18,46,38,29,28,20,12,72,50,27,29.88,29.75,29.69,10,7,2,18,7,26,T,5,Snow,279
2013-12-19,29,10,-10,27,9,-13,92,79,66,30.25,29.92,29.69,10,4,1,14,4,17,0.05,6,Snow,302
2013-12-20,23,9,-6,19,9,-8,91,77,62,30.17,29.78,29.48,10,6,1,9,2,12,0.02,7,Snow,332
2013-12-21,29,24,19,20,17,14,92,75,58,30.07,29.82,29.50,10,7,2,17,4,21,T,8,Snow,338
2013-12-22,33,26,19,25,21,15,88,76,63,30.28,30.13,30.01,10,9,2,14,4,21,0.01,8,Snow,314
2013-12-23,42,34,26,31,26,18,84,71,57,30.25,30.09,29.91,10,8,0,35,6,45,0.01,7,Fog-Rain-Snow,292
2013-12-24,32,24,16,16,13,11,74,61,47,30.53,30.37,30.09,10,10,10,28,8,36,0.00,2,,313
2013-12-25,28,15,2,12,8,-1,88,69,50,30.66,30.55,30.46,10,10,10,9,2,12,0.00,1,,108
2013-12-26,45,30,15,26,19,10,77,55,33,30.47,30.39,30.28,10,10,8,10,3,24,0.00,4,,340
2013-12-27,44,30,15,24,18,11,88,64,40,30.38,30.22,30.03,10,10,10,14,3,15,0.00,0,,15
2013-12-28,40,27,14,24,19,12,88,61,34,30.42,30.23,29.95,10,8,1,20,4,25,T,7,Snow,314
2013-12-29,32,20,8,20,13,5,92,68,43,30.43,30.31,30.21,10,10,8,10,3,15,0.00,5,,321
2013-12-30,39,31,22,28,22,18,81,65,48,30.29,30.17,30.00,10,10,4,15,5,23,0.00,4,,316
2013-12-31,40,34,27,29,25,20,72,66,59,30.16,30.01,29.96,10,9,1,21,8,29,T,7,Rain-Snow,291